METAR v bližini

 

LJLJ - Ljubljana/Brnik, Slovenia
Oddaljenost od postaje: Z 41km
Podatki zajeti: 30/05/2017 14:30
Delno oblačno
Delno oblačno
 Veter iz smeri SSV
Veter: SSV 6 km/h
Temperatura: 28°C
Toplotni indeks: 28°C
Rosišče: 15°C
Vlažnost: 45%
Tlak: 1015 hPa
Oblačnost: Delno oblačno
Vidljivost: 10 km
Podrobnosti o oblakih: Rahlo oblačno 1829 m
Delno oblačno 3048 m
2017/05/30 12:30 LJLJ 301230Z 02003KT 320V080 9999 FEW060 SCT100 28/15 Q1015 NOSIG
LJMB - Maribor, Slovenia
Oddaljenost od postaje: SV 63km
Podatki zajeti: 30/05/2017 14:30
Pretežno oblačno
Pretežno oblačno
 Veter iz smeri ZJZ
Veter: ZJZ 4 km/h
Temperatura: 29°C
Toplotni indeks: 29°C
Rosišče: 15°C
Vlažnost: 43%
Tlak: 1014 hPa
Oblačnost: Pretežno oblačno
Vidljivost: 10 km
Podrobnosti o oblakih: Rahlo oblačno 1219 m
Pretežno oblačno 7010 m
2017/05/30 12:30 LJMB 301230Z 24002KT 9999 FEW040 BKN230 29/15 Q1014
 
LJPZ - Portoroz, Slovenia
Oddaljenost od postaje: JZ 130km
Podatki zajeti: 30/05/2017 14:30
Jasno
Jasno
 Veter iz smeri JZ
Veter: JZ 11 km/h
Temperatura: 27°C
Toplotni indeks: 27°C
Rosišče: 13°C
Vlažnost: 42%
Tlak: 1016 hPa
Stanje: Jasno
Vidljivost: večja od 10 km
2017/05/30 12:30 LJPZ 301230Z 23006KT 190V260 CAVOK 27/13 Q1016
LJCE - Cerklje, Slovenia
Oddaljenost od postaje: VJV 49km
Podatki zajeti: 30/05/2017 14:30
Jasno
Jasno
 Veter iz smeri VJV
Veter: VJV 6 km/h
Temperatura: 30°C
Toplotni indeks: 29°C
Rosišče: 15°C
Vlažnost: 40%
Tlak: 1014 hPa
Stanje: Jasno
Vidljivost: večja od 10 km
2017/05/30 12:30 LJCE 301230Z 11003KT CAVOK 30/15 Q1014 RMK BLU
 
LDZA - Zagreb/Pleso, Croatia
Oddaljenost od postaje: VJV 96km
Podatki zajeti: 30/05/2017 14:30
Jasno
Jasno
 Veter iz smeri spremenljiv
Veter: spremenljiv 2 km/h
Temperatura: 29°C
Rosišče: 13°C
Vlažnost: 37%
Tlak: 1014 hPa
Stanje: Jasno
Vidljivost: večja od 10 km
2017/05/30 12:30 LDZA 301230Z VRB01KT CAVOK 29/13 Q1014 NOSIG
LDRI - Rijeka/Omisalj, Croatia
Oddaljenost od postaje: JJZ 109km
Podatki zajeti: 30/05/2017 14:30
Jasno
Jasno
 Veter iz smeri Z
Veter: Z 11 km/h
Temperatura: 24°C
Rosišče: 16°C
Vlažnost: 61%
Tlak: 1016 hPa
Stanje: Jasno
Vidljivost: večja od 10 km
2017/05/30 12:30 LDRI 301230Z 27006KT 240V340 CAVOK 24/16 Q1016
 
LDPL - Pula, Croatia
Oddaljenost od postaje: JJZ 164km
Podatki zajeti: 30/05/2017 14:30
Jasno
Jasno
 Veter iz smeri J
Veter: J 9 km/h
Temperatura: 25°C
Rosišče: 12°C
Vlažnost: 44%
Tlak: 1017 hPa
Stanje: Jasno
Vidljivost: večja od 10 km
2017/05/30 12:30 LDPL 301230Z 18005KT 090V220 CAVOK 25/12 Q1017 TEMPO 24008KT
LOWK - Klagenfurt(Civ/M, Austria
Oddaljenost od postaje: SZ 76km
Podatki zajeti: 30/05/2017 14:20
Rahlo oblačno
Rahlo oblačno
 Veter iz smeri V
Veter: V 7 km/h
Temperatura: 30°C
Rosišče: 9°C
Vlažnost: 27%
Tlak: 1015 hPa
Oblačnost: Rahlo oblačno
Vidljivost: 10 km
Podrobnosti o oblakih: Rahlo oblačno 1829 m
Rahlo oblačno 1829 m
2017/05/30 12:20 LOWK 301220Z 08004KT 360V150 9999 FEW060 FEW060CB 30/09 Q1015 NOSIG
 
LOWG - Graz (mil/Civ), Austria
Oddaljenost od postaje: SSV 100km
Podatki zajeti: 30/05/2017 14:20
Pretežno oblačno
Pretežno oblačno
 Veter iz smeri J
Veter: J 9 km/h
Temperatura: 29°C
Rosišče: 13°C
Vlažnost: 37%
Tlak: 1015 hPa
Oblačnost: Pretežno oblačno
Vidljivost: 10 km
Podrobnosti o oblakih: Rahlo oblačno 1829 m
Rahlo oblačno 1829 m
Pretežno oblačno 9144 m
2017/05/30 12:20 LOWG 301220Z 17005KT 130V250 9999 FEW060 FEW060CB BKN300 29/13 Q1015 NOSIG
LOWZ - Zell Am See, Austria
Oddaljenost od postaje: SZ 211km
Podatki zajeti: 31/12/2016 17:00
Ni posodobljen
Jasno
Jasno
 Veter iz smeri spremenljiv
Veter: spremenljiv 4 km/h
Temperatura: -4°C
Rosišče: -7°C
Vlažnost: 80%
Tlak: 1031 hPa
Oblačnost: Jasno
2016/12/31 16:00 LOWZ 311600Z VRB02KT 50KM SKC M04/M07 Q1031
 
LOAN - Wr.neustadt East, Austria
Oddaljenost od postaje: SSV 212km
Podatki zajeti: 30/05/2017 14:00
Delno oblačno
Delno oblačno
 Veter iz smeri V
Veter: V 17 km/h
Oblačnost: Delno oblačno
Podrobnosti o oblakih: Rahlo oblačno 1829 m
Delno oblačno 9144 m
2017/05/30 12:00 LOAN 301200Z 09009KT 40KM FEW060CU SCT300CI
LIPQ - Ronchi Legionari, Italy
Oddaljenost od postaje: JZ 35km
Podatki zajeti: 30/05/2017 14:20
Jasno
Jasno
 Veter iz smeri JJZ
Veter: JJZ 11 km/h
Temperatura: 27°C
Toplotni indeks: 27°C
Rosišče: 14°C
Vlažnost: 45%
Tlak: 1016 hPa
Stanje: Jasno
Vidljivost: večja od 10 km
2017/05/30 12:20 LIPQ 301220Z 21006KT 180V300 CAVOK 27/14 Q1016
 
LIVT - Trieste, Italy
Oddaljenost od postaje: ZJZ 109km
Podatki zajeti: 30/05/2017 13:55
Jasno
Jasno
 Veter iz smeri Z
Veter: Z 4 km/h
Temperatura: 27°C
Toplotni indeks: 28°C
Rosišče: 16°C
Vlažnost: 51%
Tlak: 1016 hPa
Stanje: Jasno
Vidljivost: večja od 10 km
2017/05/30 11:55 LIVT 301155Z 27002KT CAVOK 27/16 Q1016 RMK SKC QUK 0 QUL 0 VIS MAR 20 KM VIS MIN 9999
LIVO - Tarvisio, Italy
Oddaljenost od postaje: SSZ 49km
Podatki zajeti: 30/05/2017 13:55
Nevihte, Delno oblačno
Nevihte, Delno oblačno
 Veter iz smeri VSV
Veter: VSV 13 km/h
Temperatura: 26°C
Rosišče: 14°C
Vlažnost: 48%
Tlak: 1016 hPa
Stanje: Nevihte
Oblačnost: Delno oblačno
Vidljivost: 10 km
Podrobnosti o oblakih: Rahlo oblačno 914 m
Delno oblačno 1067 m
2017/05/30 11:55 LIVO 301155Z 07007KT 9999 TS FEW030CB SCT035 26/14 Q1016 RMK BKN VIS MIN 9999
 
LIPZ - Venezia/Tessera, Italy
Oddaljenost od postaje: ZJZ 217km
Podatki zajeti: 30/05/2017 14:20
Jasno
Jasno
 Veter iz smeri JV
Veter: JV 19 km/h
Temperatura: 25°C
Rosišče: 17°C
Vlažnost: 61%
Tlak: 1015 hPa
Stanje: Jasno
Vidljivost: večja od 10 km
2017/05/30 12:20 LIPZ 301220Z 14010KT 110V170 CAVOK 25/17 Q1015 NOSIG
LHSM - Balaton, Hungary
Oddaljenost od postaje: VSV 177km
Podatki zajeti: 30/05/2017 14:15
Jasno
Jasno
 Veter iz smeri J
Veter: J 13 km/h
Temperatura: 28°C
Rosišče: 10°C
Vlažnost: 32%
Tlak: 1015 hPa
Stanje: Jasno
Vidljivost: večja od 10 km
2017/05/30 12:15 LHSM 301215Z 17007KT CAVOK 28/10 Q1015 NOSIG